sensor_id;sensor_type;location;lat;lon;timestamp;P1;durP1;ratioP1;P2;durP2;ratioP2
5754;SDS011;2902;42.130;24.732;2023-03-23T00:01:08;22.83;;;16.37;;
5754;SDS011;2902;42.130;24.732;2023-03-23T00:03:39;18.73;;;16.10;;
5754;SDS011;2902;42.130;24.732;2023-03-23T00:06:08;21.17;;;16.00;;
5754;SDS011;2902;42.130;24.732;2023-03-23T00:08:35;20.97;;;17.80;;
5754;SDS011;2902;42.130;24.732;2023-03-23T00:11:10;24.17;;;17.70;;
5754;SDS011;2902;42.130;24.732;2023-03-23T00:13:40;22.77;;;16.73;;
5754;SDS011;2902;42.130;24.732;2023-03-23T00:16:07;20.30;;;17.03;;
5754;SDS011;2902;42.130;24.732;2023-03-23T00:18:43;19.20;;;15.70;;
5754;SDS011;2902;42.130;24.732;2023-03-23T00:21:11;22.53;;;17.17;;
5754;SDS011;2902;42.130;24.732;2023-03-23T00:23:37;18.20;;;16.10;;
5754;SDS011;2902;42.130;24.732;2023-03-23T00:26:05;22.67;;;17.07;;
5754;SDS011;2902;42.130;24.732;2023-03-23T00:28:33;21.10;;;16.77;;
5754;SDS011;2902;42.130;24.732;2023-03-23T00:31:01;23.97;;;16.83;;
5754;SDS011;2902;42.130;24.732;2023-03-23T00:33:29;22.80;;;17.03;;
5754;SDS011;2902;42.130;24.732;2023-03-23T00:36:00;20.83;;;17.10;;
5754;SDS011;2902;42.130;24.732;2023-03-23T00:38:26;21.23;;;17.07;;
5754;SDS011;2902;42.130;24.732;2023-03-23T00:40:53;22.50;;;17.37;;
5754;SDS011;2902;42.130;24.732;2023-03-23T00:43:22;23.10;;;17.53;;
5754;SDS011;2902;42.130;24.732;2023-03-23T00:45:54;21.60;;;16.47;;
5754;SDS011;2902;42.130;24.732;2023-03-23T00:48:21;20.97;;;17.07;;
5754;SDS011;2902;42.130;24.732;2023-03-23T00:50:49;23.77;;;18.97;;
5754;SDS011;2902;42.130;24.732;2023-03-23T00:53:18;25.87;;;18.77;;
5754;SDS011;2902;42.130;24.732;2023-03-23T00:55:46;24.50;;;17.90;;
5754;SDS011;2902;42.130;24.732;2023-03-23T00:58:14;22.03;;;17.83;;
5754;SDS011;2902;42.130;24.732;2023-03-23T01:00:41;20.23;;;16.63;;
5754;SDS011;2902;42.130;24.732;2023-03-23T01:03:09;25.83;;;16.83;;
5754;SDS011;2902;42.130;24.732;2023-03-23T01:05:37;23.97;;;17.87;;
5754;SDS011;2902;42.130;24.732;2023-03-23T01:08:04;20.43;;;15.87;;
5754;SDS011;2902;42.130;24.732;2023-03-23T01:10:33;25.00;;;18.43;;
5754;SDS011;2902;42.130;24.732;2023-03-23T01:13:04;23.07;;;16.60;;
5754;SDS011;2902;42.130;24.732;2023-03-23T01:15:31;28.17;;;17.20;;
5754;SDS011;2902;42.130;24.732;2023-03-23T01:17:58;23.97;;;17.43;;
5754;SDS011;2902;42.130;24.732;2023-03-23T01:20:25;25.80;;;17.77;;
5754;SDS011;2902;42.130;24.732;2023-03-23T01:22:54;22.83;;;17.60;;
5754;SDS011;2902;42.130;24.732;2023-03-23T01:25:25;21.53;;;17.53;;
5754;SDS011;2902;42.130;24.732;2023-03-23T01:27:54;24.37;;;16.97;;
5754;SDS011;2902;42.130;24.732;2023-03-23T01:30:21;22.67;;;17.30;;
5754;SDS011;2902;42.130;24.732;2023-03-23T01:32:48;29.90;;;18.73;;
5754;SDS011;2902;42.130;24.732;2023-03-23T01:35:15;27.73;;;18.97;;
5754;SDS011;2902;42.130;24.732;2023-03-23T01:37:42;19.30;;;17.27;;
5754;SDS011;2902;42.130;24.732;2023-03-23T01:40:09;26.37;;;17.53;;
5754;SDS011;2902;42.130;24.732;2023-03-23T01:42:37;21.27;;;18.27;;
5754;SDS011;2902;42.130;24.732;2023-03-23T01:47:57;26.27;;;19.63;;
5754;SDS011;2902;42.130;24.732;2023-03-23T01:50:31;21.17;;;17.10;;
5754;SDS011;2902;42.130;24.732;2023-03-23T01:53:02;28.97;;;18.93;;
5754;SDS011;2902;42.130;24.732;2023-03-23T01:55:33;27.17;;;20.07;;
5754;SDS011;2902;42.130;24.732;2023-03-23T01:58:03;30.33;;;19.80;;
5754;SDS011;2902;42.130;24.732;2023-03-23T02:00:32;26.23;;;19.47;;
5754;SDS011;2902;42.130;24.732;2023-03-23T02:02:59;30.10;;;20.60;;
5754;SDS011;2902;42.130;24.732;2023-03-23T02:05:28;24.93;;;19.03;;
5754;SDS011;2902;42.130;24.732;2023-03-23T02:07:58;25.43;;;19.13;;
5754;SDS011;2902;42.130;24.732;2023-03-23T02:10:28;29.70;;;19.97;;
5754;SDS011;2902;42.130;24.732;2023-03-23T02:12:55;27.93;;;20.27;;
5754;SDS011;2902;42.130;24.732;2023-03-23T02:15:23;24.40;;;19.73;;
5754;SDS011;2902;42.130;24.732;2023-03-23T02:17:53;26.63;;;19.47;;
5754;SDS011;2902;42.130;24.732;2023-03-23T02:20:33;29.60;;;20.50;;
5754;SDS011;2902;42.130;24.732;2023-03-23T02:26:38;26.03;;;19.20;;
5754;SDS011;2902;42.130;24.732;2023-03-23T02:29:28;28.10;;;20.67;;
5754;SDS011;2902;42.130;24.732;2023-03-23T02:32:08;26.13;;;20.90;;
5754;SDS011;2902;42.130;24.732;2023-03-23T02:34:42;29.00;;;20.67;;
5754;SDS011;2902;42.130;24.732;2023-03-23T02:37:13;32.03;;;21.57;;
5754;SDS011;2902;42.130;24.732;2023-03-23T02:39:45;32.53;;;22.40;;
5754;SDS011;2902;42.130;24.732;2023-03-23T02:42:15;27.63;;;21.63;;
5754;SDS011;2902;42.130;24.732;2023-03-23T02:44:45;29.97;;;21.47;;
5754;SDS011;2902;42.130;24.732;2023-03-23T02:47:14;30.43;;;22.13;;
5754;SDS011;2902;42.130;24.732;2023-03-23T02:49:47;31.17;;;21.47;;
5754;SDS011;2902;42.130;24.732;2023-03-23T02:52:18;28.30;;;19.93;;
5754;SDS011;2902;42.130;24.732;2023-03-23T02:54:48;29.27;;;19.60;;
5754;SDS011;2902;42.130;24.732;2023-03-23T02:57:17;25.90;;;20.03;;
5754;SDS011;2902;42.130;24.732;2023-03-23T02:59:43;28.17;;;19.23;;
5754;SDS011;2902;42.130;24.732;2023-03-23T03:02:12;29.57;;;20.40;;
5754;SDS011;2902;42.130;24.732;2023-03-23T03:04:41;33.77;;;21.07;;
5754;SDS011;2902;42.130;24.732;2023-03-23T03:10:15;30.70;;;19.43;;
5754;SDS011;2902;42.130;24.732;2023-03-23T03:12:51;28.40;;;19.73;;
5754;SDS011;2902;42.130;24.732;2023-03-23T03:15:24;25.77;;;18.03;;
5754;SDS011;2902;42.130;24.732;2023-03-23T03:17:57;28.90;;;19.23;;
5754;SDS011;2902;42.130;24.732;2023-03-23T03:20:30;24.57;;;18.40;;
5754;SDS011;2902;42.130;24.732;2023-03-23T03:22:59;25.23;;;19.67;;
5754;SDS011;2902;42.130;24.732;2023-03-23T03:25:27;26.10;;;19.20;;
5754;SDS011;2902;42.130;24.732;2023-03-23T03:27:54;27.80;;;19.47;;
5754;SDS011;2902;42.130;24.732;2023-03-23T03:30:24;26.07;;;18.80;;
5754;SDS011;2902;42.130;24.732;2023-03-23T03:32:55;27.90;;;19.23;;
5754;SDS011;2902;42.130;24.732;2023-03-23T03:35:25;27.97;;;18.80;;
5754;SDS011;2902;42.130;24.732;2023-03-23T03:37:54;28.60;;;19.60;;
5754;SDS011;2902;42.130;24.732;2023-03-23T03:40:22;26.27;;;19.10;;
5754;SDS011;2902;42.130;24.732;2023-03-23T03:42:49;25.70;;;18.33;;
5754;SDS011;2902;42.130;24.732;2023-03-23T03:45:18;24.50;;;18.27;;
5754;SDS011;2902;42.130;24.732;2023-03-23T03:47:46;23.93;;;16.50;;
5754;SDS011;2902;42.130;24.732;2023-03-23T03:50:13;25.80;;;17.60;;
5754;SDS011;2902;42.130;24.732;2023-03-23T03:52:41;26.93;;;19.20;;
5754;SDS011;2902;42.130;24.732;2023-03-23T03:55:10;26.90;;;18.37;;
5754;SDS011;2902;42.130;24.732;2023-03-23T03:57:37;25.40;;;18.00;;
5754;SDS011;2902;42.130;24.732;2023-03-23T04:00:05;29.37;;;18.77;;
5754;SDS011;2902;42.130;24.732;2023-03-23T04:02:39;21.67;;;16.43;;
5754;SDS011;2902;42.130;24.732;2023-03-23T04:05:07;28.20;;;18.17;;
5754;SDS011;2902;42.130;24.732;2023-03-23T04:07:35;27.17;;;17.73;;
5754;SDS011;2902;42.130;24.732;2023-03-23T04:10:04;24.03;;;17.47;;
5754;SDS011;2902;42.130;24.732;2023-03-23T04:12:34;21.13;;;16.67;;
5754;SDS011;2902;42.130;24.732;2023-03-23T04:15:02;25.70;;;17.30;;
5754;SDS011;2902;42.130;24.732;2023-03-23T04:17:29;22.87;;;17.03;;
5754;SDS011;2902;42.130;24.732;2023-03-23T04:19:56;21.37;;;16.13;;
5754;SDS011;2902;42.130;24.732;2023-03-23T04:22:24;25.93;;;17.57;;
5754;SDS011;2902;42.130;24.732;2023-03-23T04:24:55;23.47;;;17.20;;
5754;SDS011;2902;42.130;24.732;2023-03-23T04:27:23;26.50;;;17.87;;
5754;SDS011;2902;42.130;24.732;2023-03-23T04:29:54;26.10;;;18.50;;
5754;SDS011;2902;42.130;24.732;2023-03-23T04:32:23;23.33;;;17.67;;
5754;SDS011;2902;42.130;24.732;2023-03-23T04:34:54;23.03;;;17.77;;
5754;SDS011;2902;42.130;24.732;2023-03-23T04:37:22;22.70;;;16.67;;
5754;SDS011;2902;42.130;24.732;2023-03-23T04:39:53;23.40;;;16.60;;
5754;SDS011;2902;42.130;24.732;2023-03-23T04:42:25;22.70;;;17.33;;
5754;SDS011;2902;42.130;24.732;2023-03-23T04:44:54;29.07;;;17.40;;
5754;SDS011;2902;42.130;24.732;2023-03-23T04:47:20;24.37;;;16.73;;
5754;SDS011;2902;42.130;24.732;2023-03-23T04:49:47;24.27;;;17.37;;
5754;SDS011;2902;42.130;24.732;2023-03-23T04:52:14;20.20;;;15.60;;
5754;SDS011;2902;42.130;24.732;2023-03-23T04:54:41;21.93;;;15.73;;
5754;SDS011;2902;42.130;24.732;2023-03-23T04:57:07;25.83;;;16.93;;
5754;SDS011;2902;42.130;24.732;2023-03-23T04:59:35;28.17;;;16.63;;
5754;SDS011;2902;42.130;24.732;2023-03-23T05:02:07;24.70;;;16.83;;
5754;SDS011;2902;42.130;24.732;2023-03-23T05:04:34;23.97;;;16.67;;
5754;SDS011;2902;42.130;24.732;2023-03-23T05:07:02;24.50;;;16.33;;
5754;SDS011;2902;42.130;24.732;2023-03-23T05:09:29;24.00;;;17.37;;
5754;SDS011;2902;42.130;24.732;2023-03-23T05:11:55;23.10;;;15.77;;
5754;SDS011;2902;42.130;24.732;2023-03-23T05:14:24;23.13;;;15.97;;
5754;SDS011;2902;42.130;24.732;2023-03-23T05:16:51;21.63;;;16.10;;
5754;SDS011;2902;42.130;24.732;2023-03-23T05:19:20;21.87;;;16.70;;
5754;SDS011;2902;42.130;24.732;2023-03-23T05:21:47;25.20;;;15.63;;
5754;SDS011;2902;42.130;24.732;2023-03-23T05:24:13;22.50;;;14.93;;
5754;SDS011;2902;42.130;24.732;2023-03-23T05:26:40;21.63;;;14.70;;
5754;SDS011;2902;42.130;24.732;2023-03-23T05:29:07;20.87;;;14.97;;
5754;SDS011;2902;42.130;24.732;2023-03-23T05:31:35;27.13;;;15.60;;
5754;SDS011;2902;42.130;24.732;2023-03-23T05:34:02;27.17;;;16.30;;
5754;SDS011;2902;42.130;24.732;2023-03-23T05:36:31;20.03;;;15.77;;
5754;SDS011;2902;42.130;24.732;2023-03-23T05:38:57;31.10;;;17.30;;
5754;SDS011;2902;42.130;24.732;2023-03-23T05:41:25;23.03;;;15.90;;
5754;SDS011;2902;42.130;24.732;2023-03-23T05:43:51;21.13;;;16.20;;
5754;SDS011;2902;42.130;24.732;2023-03-23T05:46:18;21.53;;;15.40;;
5754;SDS011;2902;42.130;24.732;2023-03-23T05:48:45;26.43;;;16.83;;
5754;SDS011;2902;42.130;24.732;2023-03-23T05:51:12;21.70;;;16.20;;
5754;SDS011;2902;42.130;24.732;2023-03-23T05:53:40;26.93;;;16.47;;
5754;SDS011;2902;42.130;24.732;2023-03-23T05:56:06;27.63;;;16.13;;
5754;SDS011;2902;42.130;24.732;2023-03-23T05:58:34;23.80;;;16.27;;
5754;SDS011;2902;42.130;24.732;2023-03-23T06:01:01;28.43;;;16.93;;
5754;SDS011;2902;42.130;24.732;2023-03-23T06:03:31;24.83;;;16.00;;
5754;SDS011;2902;42.130;24.732;2023-03-23T06:06:00;26.97;;;17.00;;
5754;SDS011;2902;42.130;24.732;2023-03-23T06:08:28;24.60;;;16.57;;
5754;SDS011;2902;42.130;24.732;2023-03-23T06:10:56;35.17;;;17.73;;
5754;SDS011;2902;42.130;24.732;2023-03-23T06:13:23;23.47;;;15.43;;
5754;SDS011;2902;42.130;24.732;2023-03-23T06:15:50;27.93;;;16.47;;
5754;SDS011;2902;42.130;24.732;2023-03-23T06:18:22;39.20;;;16.07;;
5754;SDS011;2902;42.130;24.732;2023-03-23T06:20:49;22.53;;;16.13;;
5754;SDS011;2902;42.130;24.732;2023-03-23T06:23:17;23.57;;;16.50;;
5754;SDS011;2902;42.130;24.732;2023-03-23T06:25:44;23.27;;;17.00;;
5754;SDS011;2902;42.130;24.732;2023-03-23T06:28:12;29.77;;;17.17;;
5754;SDS011;2902;42.130;24.732;2023-03-23T06:30:38;32.90;;;18.00;;
5754;SDS011;2902;42.130;24.732;2023-03-23T06:33:05;27.97;;;17.87;;
5754;SDS011;2902;42.130;24.732;2023-03-23T06:35:34;27.57;;;17.93;;
5754;SDS011;2902;42.130;24.732;2023-03-23T06:38:01;22.23;;;16.87;;
5754;SDS011;2902;42.130;24.732;2023-03-23T06:40:28;31.60;;;18.00;;
5754;SDS011;2902;42.130;24.732;2023-03-23T06:42:56;24.80;;;16.00;;
5754;SDS011;2902;42.130;24.732;2023-03-23T06:45:25;21.80;;;15.73;;
5754;SDS011;2902;42.130;24.732;2023-03-23T06:47:52;21.77;;;16.70;;
5754;SDS011;2902;42.130;24.732;2023-03-23T06:50:19;28.30;;;17.40;;
5754;SDS011;2902;42.130;24.732;2023-03-23T06:52:46;22.90;;;16.10;;
5754;SDS011;2902;42.130;24.732;2023-03-23T06:55:13;23.50;;;17.40;;
5754;SDS011;2902;42.130;24.732;2023-03-23T06:57:40;21.67;;;15.90;;
5754;SDS011;2902;42.130;24.732;2023-03-23T07:00:08;26.43;;;17.13;;
5754;SDS011;2902;42.130;24.732;2023-03-23T07:02:38;40.50;;;25.17;;
5754;SDS011;2902;42.130;24.732;2023-03-23T07:05:06;28.70;;;17.67;;
5754;SDS011;2902;42.130;24.732;2023-03-23T07:07:34;25.07;;;15.87;;
5754;SDS011;2902;42.130;24.732;2023-03-23T07:10:00;25.30;;;15.63;;
5754;SDS011;2902;42.130;24.732;2023-03-23T07:12:28;27.23;;;16.73;;
5754;SDS011;2902;42.130;24.732;2023-03-23T07:14:55;20.13;;;15.47;;
5754;SDS011;2902;42.130;24.732;2023-03-23T07:17:21;31.00;;;15.30;;
5754;SDS011;2902;42.130;24.732;2023-03-23T07:19:49;25.73;;;16.90;;
5754;SDS011;2902;42.130;24.732;2023-03-23T07:22:16;29.60;;;16.63;;
5754;SDS011;2902;42.130;24.732;2023-03-23T07:24:43;20.57;;;16.03;;
5754;SDS011;2902;42.130;24.732;2023-03-23T07:27:10;38.07;;;16.60;;
5754;SDS011;2902;42.130;24.732;2023-03-23T07:29:36;25.83;;;15.43;;
5754;SDS011;2902;42.130;24.732;2023-03-23T07:32:04;25.27;;;14.73;;
5754;SDS011;2902;42.130;24.732;2023-03-23T07:34:31;23.17;;;13.27;;
5754;SDS011;2902;42.130;24.732;2023-03-23T07:37:00;17.50;;;11.90;;
5754;SDS011;2902;42.130;24.732;2023-03-23T07:39:26;22.73;;;12.67;;
5754;SDS011;2902;42.130;24.732;2023-03-23T07:41:53;14.60;;;13.10;;
5754;SDS011;2902;42.130;24.732;2023-03-23T07:44:20;15.57;;;12.80;;
5754;SDS011;2902;42.130;24.732;2023-03-23T07:46:47;15.37;;;13.23;;
5754;SDS011;2902;42.130;24.732;2023-03-23T07:49:14;19.37;;;13.47;;
5754;SDS011;2902;42.130;24.732;2023-03-23T07:51:41;15.83;;;12.13;;
5754;SDS011;2902;42.130;24.732;2023-03-23T07:54:09;14.37;;;12.90;;
5754;SDS011;2902;42.130;24.732;2023-03-23T07:56:36;14.17;;;12.87;;
5754;SDS011;2902;42.130;24.732;2023-03-23T07:59:05;14.23;;;12.80;;
5754;SDS011;2902;42.130;24.732;2023-03-23T08:01:32;35.00;;;14.37;;
5754;SDS011;2902;42.130;24.732;2023-03-23T08:03:59;18.80;;;13.80;;
5754;SDS011;2902;42.130;24.732;2023-03-23T08:06:26;20.83;;;12.23;;
5754;SDS011;2902;42.130;24.732;2023-03-23T08:08:53;12.30;;;11.13;;
5754;SDS011;2902;42.130;24.732;2023-03-23T08:11:21;11.93;;;10.70;;
5754;SDS011;2902;42.130;24.732;2023-03-23T08:13:48;11.27;;;10.00;;
5754;SDS011;2902;42.130;24.732;2023-03-23T08:16:15;15.13;;;11.00;;
5754;SDS011;2902;42.130;24.732;2023-03-23T08:18:41;15.73;;;10.57;;
5754;SDS011;2902;42.130;24.732;2023-03-23T08:21:08;12.47;;;10.43;;
5754;SDS011;2902;42.130;24.732;2023-03-23T08:23:35;16.80;;;10.20;;
5754;SDS011;2902;42.130;24.732;2023-03-23T08:26:03;20.57;;;11.27;;
5754;SDS011;2902;42.130;24.732;2023-03-23T08:28:32;42.07;;;11.20;;
5754;SDS011;2902;42.130;24.732;2023-03-23T08:30:59;12.47;;;10.93;;
5754;SDS011;2902;42.130;24.732;2023-03-23T08:33:26;10.17;;;9.27;;
5754;SDS011;2902;42.130;24.732;2023-03-23T08:35:54;24.73;;;12.97;;
5754;SDS011;2902;42.130;24.732;2023-03-23T08:38:22;52.33;;;18.80;;
5754;SDS011;2902;42.130;24.732;2023-03-23T08:40:49;21.00;;;12.13;;
5754;SDS011;2902;42.130;24.732;2023-03-23T08:43:16;13.20;;;11.10;;
5754;SDS011;2902;42.130;24.732;2023-03-23T08:45:44;40.70;;;11.10;;
5754;SDS011;2902;42.130;24.732;2023-03-23T08:48:11;12.27;;;10.67;;
5754;SDS011;2902;42.130;24.732;2023-03-23T08:50:38;39.83;;;12.63;;
5754;SDS011;2902;42.130;24.732;2023-03-23T08:53:06;55.10;;;13.50;;
5754;SDS011;2902;42.130;24.732;2023-03-23T08:55:32;22.03;;;12.33;;
5754;SDS011;2902;42.130;24.732;2023-03-23T08:57:59;14.13;;;12.73;;
5754;SDS011;2902;42.130;24.732;2023-03-23T09:00:26;12.53;;;10.53;;
5754;SDS011;2902;42.130;24.732;2023-03-23T09:02:54;10.40;;;9.50;;
5754;SDS011;2902;42.130;24.732;2023-03-23T09:05:22;9.73;;;8.80;;
5754;SDS011;2902;42.130;24.732;2023-03-23T09:07:51;8.37;;;7.87;;
5754;SDS011;2902;42.130;24.732;2023-03-23T09:10:19;11.67;;;10.13;;
5754;SDS011;2902;42.130;24.732;2023-03-23T09:12:47;10.00;;;9.20;;
5754;SDS011;2902;42.130;24.732;2023-03-23T09:15:14;21.10;;;10.60;;
5754;SDS011;2902;42.130;24.732;2023-03-23T09:17:43;17.47;;;10.30;;
5754;SDS011;2902;42.130;24.732;2023-03-23T09:20:13;80.87;;;12.93;;
5754;SDS011;2902;42.130;24.732;2023-03-23T09:22:41;10.97;;;9.97;;
5754;SDS011;2902;42.130;24.732;2023-03-23T09:25:10;15.93;;;9.40;;
5754;SDS011;2902;42.130;24.732;2023-03-23T09:27:38;19.03;;;9.30;;
5754;SDS011;2902;42.130;24.732;2023-03-23T09:30:06;72.10;;;13.10;;
5754;SDS011;2902;42.130;24.732;2023-03-23T09:32:35;8.43;;;7.90;;
5754;SDS011;2902;42.130;24.732;2023-03-23T09:35:03;18.63;;;8.57;;
5754;SDS011;2902;42.130;24.732;2023-03-23T09:37:34;9.77;;;7.30;;
5754;SDS011;2902;42.130;24.732;2023-03-23T09:40:01;19.63;;;8.33;;
5754;SDS011;2902;42.130;24.732;2023-03-23T09:42:33;7.67;;;7.07;;
5754;SDS011;2902;42.130;24.732;2023-03-23T09:45:10;13.37;;;10.87;;
5754;SDS011;2902;42.130;24.732;2023-03-23T09:47:44;5.90;;;5.60;;
5754;SDS011;2902;42.130;24.732;2023-03-23T09:50:16;7.07;;;5.53;;
5754;SDS011;2902;42.130;24.732;2023-03-23T09:52:47;12.20;;;6.10;;
5754;SDS011;2902;42.130;24.732;2023-03-23T09:55:21;14.93;;;6.13;;
5754;SDS011;2902;42.130;24.732;2023-03-23T09:57:49;5.67;;;5.27;;
5754;SDS011;2902;42.130;24.732;2023-03-23T10:00:22;4.93;;;4.57;;
5754;SDS011;2902;42.130;24.732;2023-03-23T10:02:55;5.00;;;4.60;;
5754;SDS011;2902;42.130;24.732;2023-03-23T10:05:29;6.43;;;5.93;;
5754;SDS011;2902;42.130;24.732;2023-03-23T10:08:00;7.73;;;6.80;;
5754;SDS011;2902;42.130;24.732;2023-03-23T10:10:32;30.70;;;8.60;;
5754;SDS011;2902;42.130;24.732;2023-03-23T10:13:07;8.80;;;8.20;;
5754;SDS011;2902;42.130;24.732;2023-03-23T10:15:41;17.57;;;8.87;;
5754;SDS011;2902;42.130;24.732;2023-03-23T10:18:11;9.87;;;7.53;;
5754;SDS011;2902;42.130;24.732;2023-03-23T10:20:42;20.73;;;6.77;;
5754;SDS011;2902;42.130;24.732;2023-03-23T10:23:24;4.10;;;3.80;;
5754;SDS011;2902;42.130;24.732;2023-03-23T10:26:08;4.57;;;4.30;;
5754;SDS011;2902;42.130;24.732;2023-03-23T10:28:42;4.07;;;3.77;;
5754;SDS011;2902;42.130;24.732;2023-03-23T10:31:11;4.83;;;4.43;;
5754;SDS011;2902;42.130;24.732;2023-03-23T10:33:43;4.73;;;4.33;;
5754;SDS011;2902;42.130;24.732;2023-03-23T10:36:13;5.40;;;5.03;;
5754;SDS011;2902;42.130;24.732;2023-03-23T10:38:45;5.63;;;4.87;;
5754;SDS011;2902;42.130;24.732;2023-03-23T10:41:16;8.03;;;5.13;;
5754;SDS011;2902;42.130;24.732;2023-03-23T10:43:44;6.30;;;5.90;;
5754;SDS011;2902;42.130;24.732;2023-03-23T10:46:16;8.67;;;5.90;;
5754;SDS011;2902;42.130;24.732;2023-03-23T10:48:49;5.93;;;5.43;;
5754;SDS011;2902;42.130;24.732;2023-03-23T10:51:27;6.63;;;6.00;;
5754;SDS011;2902;42.130;24.732;2023-03-23T10:54:00;5.70;;;5.40;;
5754;SDS011;2902;42.130;24.732;2023-03-23T10:56:28;14.57;;;5.73;;
5754;SDS011;2902;42.130;24.732;2023-03-23T10:59:10;5.73;;;5.43;;
5754;SDS011;2902;42.130;24.732;2023-03-23T11:01:41;12.70;;;6.40;;
5754;SDS011;2902;42.130;24.732;2023-03-23T11:04:11;6.70;;;5.87;;
5754;SDS011;2902;42.130;24.732;2023-03-23T11:06:42;46.73;;;8.90;;
5754;SDS011;2902;42.130;24.732;2023-03-23T11:09:13;6.07;;;5.57;;
5754;SDS011;2902;42.130;24.732;2023-03-23T11:11:43;4.90;;;4.60;;
5754;SDS011;2902;42.130;24.732;2023-03-23T11:14:15;6.70;;;5.93;;
5754;SDS011;2902;42.130;24.732;2023-03-23T11:16:44;5.10;;;4.77;;
5754;SDS011;2902;42.130;24.732;2023-03-23T11:19:21;8.00;;;7.10;;
5754;SDS011;2902;42.130;24.732;2023-03-23T11:21:50;5.40;;;5.07;;
5754;SDS011;2902;42.130;24.732;2023-03-23T11:24:20;12.23;;;5.43;;
5754;SDS011;2902;42.130;24.732;2023-03-23T11:26:48;6.33;;;4.70;;
5754;SDS011;2902;42.130;24.732;2023-03-23T11:29:18;10.03;;;5.33;;
5754;SDS011;2902;42.130;24.732;2023-03-23T11:31:48;5.17;;;4.83;;
5754;SDS011;2902;42.130;24.732;2023-03-23T11:34:18;5.40;;;4.87;;
5754;SDS011;2902;42.130;24.732;2023-03-23T11:36:48;5.17;;;4.77;;
5754;SDS011;2902;42.130;24.732;2023-03-23T11:39:22;4.97;;;4.57;;
5754;SDS011;2902;42.130;24.732;2023-03-23T11:41:50;4.87;;;4.37;;
5754;SDS011;2902;42.130;24.732;2023-03-23T11:44:18;5.13;;;4.77;;
5754;SDS011;2902;42.130;24.732;2023-03-23T11:46:49;4.10;;;3.80;;
5754;SDS011;2902;42.130;24.732;2023-03-23T11:49:27;4.70;;;4.30;;
5754;SDS011;2902;42.130;24.732;2023-03-23T11:52:07;5.10;;;4.70;;
5754;SDS011;2902;42.130;24.732;2023-03-23T11:54:42;4.80;;;4.50;;
5754;SDS011;2902;42.130;24.732;2023-03-23T11:57:12;4.67;;;4.20;;
5754;SDS011;2902;42.130;24.732;2023-03-23T11:59:40;5.90;;;4.17;;
5754;SDS011;2902;42.130;24.732;2023-03-23T12:02:24;6.43;;;5.97;;
5754;SDS011;2902;42.130;24.732;2023-03-23T12:05:19;7.60;;;6.90;;
5754;SDS011;2902;42.130;24.732;2023-03-23T12:08:02;7.50;;;7.00;;
5754;SDS011;2902;42.130;24.732;2023-03-23T12:10:41;9.20;;;8.50;;
5754;SDS011;2902;42.130;24.732;2023-03-23T12:13:19;11.90;;;9.47;;
5754;SDS011;2902;42.130;24.732;2023-03-23T12:15:59;9.97;;;8.93;;
5754;SDS011;2902;42.130;24.732;2023-03-23T12:18:32;9.20;;;8.60;;
5754;SDS011;2902;42.130;24.732;2023-03-23T12:21:11;9.67;;;7.90;;
5754;SDS011;2902;42.130;24.732;2023-03-23T12:23:46;9.47;;;8.63;;
5754;SDS011;2902;42.130;24.732;2023-03-23T12:26:21;7.80;;;7.20;;
5754;SDS011;2902;42.130;24.732;2023-03-23T12:28:56;8.83;;;8.03;;
5754;SDS011;2902;42.130;24.732;2023-03-23T12:31:36;8.20;;;7.47;;
5754;SDS011;2902;42.130;24.732;2023-03-23T12:34:13;8.03;;;7.33;;
5754;SDS011;2902;42.130;24.732;2023-03-23T12:36:52;8.13;;;7.30;;
5754;SDS011;2902;42.130;24.732;2023-03-23T12:39:47;7.50;;;6.90;;
5754;SDS011;2902;42.130;24.732;2023-03-23T12:42:23;7.17;;;6.57;;
5754;SDS011;2902;42.130;24.732;2023-03-23T12:44:59;7.03;;;6.53;;
5754;SDS011;2902;42.130;24.732;2023-03-23T12:47:37;7.07;;;6.57;;
5754;SDS011;2902;42.130;24.732;2023-03-23T12:50:11;5.70;;;5.10;;
5754;SDS011;2902;42.130;24.732;2023-03-23T12:52:43;5.67;;;5.27;;
5754;SDS011;2902;42.130;24.732;2023-03-23T12:55:16;5.80;;;5.23;;
5754;SDS011;2902;42.130;24.732;2023-03-23T12:57:49;7.50;;;5.20;;
5754;SDS011;2902;42.130;24.732;2023-03-23T13:00:25;6.20;;;4.70;;
5754;SDS011;2902;42.130;24.732;2023-03-23T13:02:57;5.13;;;4.63;;
5754;SDS011;2902;42.130;24.732;2023-03-23T13:05:34;4.67;;;4.37;;
5754;SDS011;2902;42.130;24.732;2023-03-23T13:08:09;4.70;;;4.40;;
5754;SDS011;2902;42.130;24.732;2023-03-23T13:10:40;4.70;;;4.33;;
5754;SDS011;2902;42.130;24.732;2023-03-23T13:13:13;5.03;;;4.50;;
5754;SDS011;2902;42.130;24.732;2023-03-23T13:15:46;9.90;;;5.00;;
5754;SDS011;2902;42.130;24.732;2023-03-23T13:18:24;4.50;;;4.10;;
5754;SDS011;2902;42.130;24.732;2023-03-23T13:21:01;5.80;;;5.17;;
5754;SDS011;2902;42.130;24.732;2023-03-23T13:23:37;7.07;;;4.80;;
5754;SDS011;2902;42.130;24.732;2023-03-23T13:26:07;4.37;;;4.07;;
5754;SDS011;2902;42.130;24.732;2023-03-23T13:28:47;4.80;;;4.50;;
5754;SDS011;2902;42.130;24.732;2023-03-23T13:31:20;4.33;;;4.13;;
5754;SDS011;2902;42.130;24.732;2023-03-23T13:33:50;5.10;;;4.60;;
5754;SDS011;2902;42.130;24.732;2023-03-23T13:36:24;4.93;;;4.47;;
5754;SDS011;2902;42.130;24.732;2023-03-23T13:38:54;5.00;;;4.60;;
5754;SDS011;2902;42.130;24.732;2023-03-23T13:41:24;4.53;;;4.10;;
5754;SDS011;2902;42.130;24.732;2023-03-23T13:44:03;6.77;;;3.90;;
5754;SDS011;2902;42.130;24.732;2023-03-23T13:46:32;4.80;;;4.20;;
5754;SDS011;2902;42.130;24.732;2023-03-23T13:49:17;4.60;;;4.30;;
5754;SDS011;2902;42.130;24.732;2023-03-23T13:52:14;4.50;;;3.37;;
5754;SDS011;2902;42.130;24.732;2023-03-23T13:54:44;3.70;;;3.50;;
5754;SDS011;2902;42.130;24.732;2023-03-23T13:57:20;3.60;;;3.40;;
5754;SDS011;2902;42.130;24.732;2023-03-23T13:59:57;7.47;;;3.93;;
5754;SDS011;2902;42.130;24.732;2023-03-23T14:02:31;3.73;;;3.43;;
5754;SDS011;2902;42.130;24.732;2023-03-23T14:07:59;3.67;;;3.47;;
5754;SDS011;2902;42.130;24.732;2023-03-23T14:10:33;5.40;;;3.60;;
5754;SDS011;2902;42.130;24.732;2023-03-23T14:13:02;4.63;;;4.23;;
5754;SDS011;2902;42.130;24.732;2023-03-23T14:15:40;4.30;;;4.00;;
5754;SDS011;2902;42.130;24.732;2023-03-23T14:18:12;4.10;;;3.90;;
5754;SDS011;2902;42.130;24.732;2023-03-23T14:20:41;3.83;;;3.63;;
5754;SDS011;2902;42.130;24.732;2023-03-23T14:23:15;4.00;;;3.73;;
5754;SDS011;2902;42.130;24.732;2023-03-23T14:25:43;3.93;;;3.57;;
5754;SDS011;2902;42.130;24.732;2023-03-23T14:28:17;4.30;;;3.90;;
5754;SDS011;2902;42.130;24.732;2023-03-23T14:30:47;4.00;;;3.80;;
5754;SDS011;2902;42.130;24.732;2023-03-23T14:33:18;4.13;;;3.73;;
5754;SDS011;2902;42.130;24.732;2023-03-23T14:35:46;3.90;;;3.63;;
5754;SDS011;2902;42.130;24.732;2023-03-23T14:38:15;6.07;;;3.70;;
5754;SDS011;2902;42.130;24.732;2023-03-23T14:40:44;3.57;;;3.37;;
5754;SDS011;2902;42.130;24.732;2023-03-23T14:43:13;5.63;;;5.13;;
5754;SDS011;2902;42.130;24.732;2023-03-23T14:45:43;4.30;;;3.97;;
5754;SDS011;2902;42.130;24.732;2023-03-23T14:48:12;5.73;;;4.30;;
5754;SDS011;2902;42.130;24.732;2023-03-23T14:50:41;4.43;;;4.17;;
5754;SDS011;2902;42.130;24.732;2023-03-23T14:53:16;6.27;;;3.80;;
5754;SDS011;2902;42.130;24.732;2023-03-23T14:55:46;3.90;;;3.70;;
5754;SDS011;2902;42.130;24.732;2023-03-23T14:58:14;3.90;;;3.43;;
5754;SDS011;2902;42.130;24.732;2023-03-23T15:00:43;4.10;;;3.90;;
5754;SDS011;2902;42.130;24.732;2023-03-23T15:03:16;4.70;;;4.10;;
5754;SDS011;2902;42.130;24.732;2023-03-23T15:05:46;4.50;;;4.20;;
5754;SDS011;2902;42.130;24.732;2023-03-23T15:08:18;3.97;;;3.77;;
5754;SDS011;2902;42.130;24.732;2023-03-23T15:10:52;5.10;;;4.13;;
5754;SDS011;2902;42.130;24.732;2023-03-23T15:13:21;4.63;;;4.43;;